Time;durP1;ratioP1;P1;durP2;ratioP2;P2;SDS_P1;SDS_P2;PMS_P1;PMS_P2;Temp;Humidity;BMP_temperature;BMP_pressure;BME280_temperature;BME280_humidity;BME280_pressure;Samples;Min_cycle;Max_cycle;Signal;HPM_P1;HPM_P2
2021/08/24 00:01:58;;;;;;;;;12.00;9.75;;;;;18.58;63.52;101648.31;5036521;28;45663;-85
2021/08/24 00:04:23;;;;;;;;;13.25;10.50;;;;;18.67;63.51;101671.44;5019065;28;47643;-84
2021/08/24 00:06:50;;;;;;;;;10.75;10.00;;;;;18.73;63.87;101677.03;5039254;28;46069;-84
2021/08/24 00:09:15;;;;;;;;;11.50;10.50;;;;;18.58;63.98;101651.81;5047894;28;45679;-83
2021/08/24 00:11:41;;;;;;;;;13.00;10.00;;;;;18.55;63.76;101651.28;5073801;28;45999;-85
2021/08/24 00:14:16;;;;;;;;;12.25;12.25;;;;;18.76;63.98;101686.53;5029251;28;46609;-86
2021/08/24 00:16:44;;;;;;;;;11.50;11.00;;;;;18.56;64.20;101655.59;5042844;28;45986;-85
2021/08/24 00:19:11;;;;;;;;;13.00;12.00;;;;;18.73;64.63;101684.16;5060618;28;45604;-81
2021/08/24 00:21:40;;;;;;;;;13.25;13.25;;;;;18.50;64.35;101642.84;5034488;28;45639;-84
2021/08/24 00:24:07;;;;;;;;;16.00;15.00;;;;;18.59;64.91;101669.44;5044384;28;45512;-85
2021/08/24 00:29:55;;;;;;;;;15.75;12.75;;;;;18.59;64.88;101674.75;5038851;28;45765;-84
2021/08/24 00:32:20;;;;;;;;;15.00;14.75;;;;;18.31;64.85;101628.53;5039419;28;45591;-83
2021/08/24 00:34:46;;;;;;;;;16.75;15.00;;;;;18.56;64.77;101663.56;5059041;28;47478;-84
2021/08/24 00:37:12;;;;;;;;;16.75;15.50;;;;;18.37;64.89;101640.41;5043856;28;46469;-85
2021/08/24 00:39:37;;;;;;;;;18.25;17.50;;;;;18.40;64.85;101646.31;5025680;28;45568;-84
2021/08/24 00:42:19;;;;;;;;;20.50;18.50;;;;;18.43;65.55;101656.63;5043580;28;45912;-85
2021/08/24 00:44:47;;;;;;;;;20.75;20.50;;;;;18.17;65.29;101615.63;5040017;28;45724;-83
2021/08/24 00:47:18;;;;;;;;;20.00;19.00;;;;;18.50;65.75;101669.38;5021300;28;46998;-85
2021/08/24 00:49:45;;;;;;;;;18.25;17.75;;;;;18.45;65.67;101673.28;5019590;28;45894;-85
2021/08/24 00:52:15;;;;;;;;;20.50;19.25;;;;;18.04;65.75;101604.38;5037273;28;45747;-84
2021/08/24 00:54:42;;;;;;;;;20.00;17.75;;;;;18.07;66.00;101612.09;5045344;28;47632;-84
2021/08/24 00:57:15;;;;;;;;;17.00;15.50;;;;;18.41;65.65;101668.34;5050421;28;45724;-84
2021/08/24 00:59:41;;;;;;;;;19.25;16.50;;;;;18.06;65.69;101610.41;5044199;28;46264;-85
2021/08/24 01:02:08;;;;;;;;;17.00;15.25;;;;;18.31;66.07;101651.56;5042050;28;45819;-83
2021/08/24 01:04:36;;;;;;;;;18.50;16.75;;;;;18.23;65.96;101643.44;5072454;28;47631;-84
2021/08/24 01:07:14;;;;;;;;;14.50;14.50;;;;;18.40;66.00;101666.69;5022961;28;48532;-83
2021/08/24 01:10:06;;;;;;;;;16.50;15.00;;;;;18.30;66.04;101652.56;5038289;28;45665;-84
2021/08/24 01:13:26;;;;;;;;;12.75;12.00;;;;;18.38;65.76;101663.31;5038025;28;46071;-84
2021/08/24 01:16:06;;;;;;;;;16.50;15.75;;;;;18.37;66.03;101667.78;5001945;28;45895;-84
2021/08/24 01:19:07;;;;;;;;;15.75;14.50;;;;;18.36;65.63;101663.44;5002221;28;45527;-84
2021/08/24 01:22:09;;;;;;;;;18.00;15.25;;;;;18.16;65.86;101629.00;4942501;28;46128;-84
2021/08/24 01:28:00;;;;;;;;;17.00;16.75;;;;;18.32;66.20;101651.44;4938991;28;45981;-84
2021/08/24 01:31:03;;;;;;;;;17.75;15.50;;;;;18.31;66.53;101649.75;4938355;28;45740;-84
2021/08/24 01:34:07;;;;;;;;;15.50;15.00;;;;;18.31;66.62;101648.91;4938024;28;46080;-84
2021/08/24 01:36:51;;;;;;;;;17.00;15.50;;;;;18.30;66.57;101648.06;4938211;28;46110;-84
2021/08/24 01:39:34;;;;;;;;;20.00;17.25;;;;;18.29;66.25;101648.22;4908392;28;46763;-84
2021/08/24 01:45:34;;;;;;;;;17.25;15.75;;;;;17.92;66.90;101586.91;4952417;28;45718;-84
2021/08/24 01:48:32;;;;;;;;;20.50;17.75;;;;;17.96;67.15;101593.63;4938112;28;45238;-85
2021/08/24 01:51:26;;;;;;;;;16.50;15.00;;;;;18.16;66.73;101632.50;4992913;28;47105;-85
2021/08/24 01:54:02;;;;;;;;;12.00;11.75;;;;;18.09;66.94;101627.84;4973602;28;47381;-84
2021/08/24 01:56:35;;;;;;;;;17.25;16.25;;;;;18.01;66.99;101626.72;4994881;28;45634;-84
2021/08/24 01:59:23;;;;;;;;;18.00;16.25;;;;;18.00;66.80;101617.09;5060268;27;45098;-84
2021/08/24 02:02:01;;;;;;;;;19.25;17.50;;;;;18.08;67.44;101629.69;5083753;28;47636;-85
2021/08/24 02:04:35;;;;;;;;;18.75;17.25;;;;;18.15;67.36;101645.91;5113969;27;47290;-84
2021/08/24 02:07:07;;;;;;;;;18.00;17.75;;;;;17.72;66.87;101579.81;5116019;27;45691;-83
2021/08/24 02:12:59;;;;;;;;;15.75;14.75;;;;;18.11;67.40;101657.75;5077250;28;45416;-83
2021/08/24 02:15:34;;;;;;;;;17.25;16.75;;;;;17.91;67.29;101628.50;5070652;28;46291;-85
2021/08/24 02:18:00;;;;;;;;;17.75;17.75;;;;;17.88;67.40;101612.81;5058399;28;45940;-84
2021/08/24 02:20:34;;;;;;;;;16.75;16.00;;;;;17.96;67.54;101634.25;5040415;28;45653;-83
2021/08/24 02:23:05;;;;;;;;;22.50;21.00;;;;;17.93;67.52;101623.88;5054006;28;46450;-84
2021/08/24 02:28:56;;;;;;;;;20.25;19.75;;;;;17.98;67.40;101636.72;5065750;28;45775;-84
2021/08/24 02:31:36;;;;;;;;;22.50;20.00;;;;;17.90;68.01;101626.81;5074092;28;45543;-83
2021/08/24 02:34:25;;;;;;;;;21.25;20.75;;;;;18.04;68.09;101645.00;5055862;28;47592;-84
2021/08/24 02:37:29;;;;;;;;;26.50;22.25;;;;;18.01;67.52;101650.59;5042680;28;47077;-85
2021/08/24 02:39:55;;;;;;;;;25.75;23.25;;;;;18.01;67.75;101645.28;5068962;28;45914;-83
2021/08/24 02:42:32;;;;;;;;;25.25;23.50;;;;;17.90;68.28;101636.56;5081277;28;45311;-86
2021/08/24 02:45:08;;;;;;;;;25.75;24.00;;;;;18.00;67.77;101648.06;5074746;28;45620;-83
2021/08/24 02:47:35;;;;;;;;;23.75;20.50;;;;;17.76;67.98;101615.72;5059311;28;47237;-85
2021/08/24 02:50:03;;;;;;;;;23.50;21.75;;;;;17.91;68.26;101633.78;5058648;28;45663;-84
2021/08/24 02:52:29;;;;;;;;;23.25;21.50;;;;;18.00;68.40;101656.03;5091424;27;45692;-84
2021/08/24 02:54:55;;;;;;;;;27.50;24.50;;;;;17.95;68.47;101648.47;5076312;28;45777;-85
2021/08/24 03:00:42;;;;;;;;;25.75;25.50;;;;;17.80;68.24;101606.50;5059556;28;45904;-82
2021/08/24 03:03:08;;;;;;;;;21.75;21.75;;;;;18.01;68.16;101649.75;5068418;28;45658;-84
2021/08/24 03:05:34;;;;;;;;;29.00;26.75;;;;;17.94;68.13;101632.69;5051312;28;45615;-84
2021/08/24 03:08:01;;;;;;;;;31.25;28.25;;;;;17.88;68.75;101623.44;5064813;28;45676;-83
2021/08/24 03:10:30;;;;;;;;;32.25;27.50;;;;;17.80;67.98;101615.31;5058213;28;45716;-84
2021/08/24 03:13:27;;;;;;;;;26.75;23.25;;;;;17.99;68.31;101644.56;5057712;28;45908;-83
2021/08/24 03:16:10;;;;;;;;;28.50;27.00;;;;;17.99;68.07;101633.13;5040113;28;46530;-82
2021/08/24 03:18:42;;;;;;;;;29.50;28.50;;;;;17.71;68.21;101594.88;5057383;28;46056;-84
2021/08/24 03:21:13;;;;;;;;;32.00;30.00;;;;;17.63;68.18;101583.25;5039221;28;45824;-84
2021/08/24 03:23:42;;;;;;;;;33.50;31.75;;;;;17.75;68.50;101614.88;5057305;28;45587;-83
2021/08/24 03:26:09;;;;;;;;;30.25;28.25;;;;;17.89;68.38;101630.41;5057784;28;45589;-83
2021/08/24 03:28:44;;;;;;;;;33.75;29.75;;;;;17.80;68.49;101606.50;5039243;28;47397;-86
2021/08/24 03:31:19;;;;;;;;;32.00;31.00;;;;;17.68;68.78;101594.28;5039990;28;46075;-84
2021/08/24 03:33:50;;;;;;;;;36.00;32.00;;;;;17.96;68.51;101641.34;5040130;28;45802;-86
2021/08/24 03:36:24;;;;;;;;;39.25;33.50;;;;;17.69;68.99;101601.28;5073691;28;47440;-86
2021/08/24 03:38:50;;;;;;;;;42.50;33.00;;;;;17.36;68.81;101550.13;5058690;28;45840;-83
2021/08/24 03:41:15;;;;;;;;;37.50;33.25;;;;;17.79;68.98;101626.88;5039117;28;45949;-84
2021/08/24 03:43:41;;;;;;;;;39.75;33.25;;;;;17.80;69.08;101635.69;5057274;28;45681;-84
2021/08/24 03:46:09;;;;;;;;;37.50;32.50;;;;;17.36;68.88;101558.09;5057684;28;45759;-85
2021/08/24 03:48:38;;;;;;;;;36.50;32.75;;;;;17.35;69.33;101574.09;5073663;28;48432;-84
2021/08/24 03:51:03;;;;;;;;;39.50;33.00;;;;;17.51;69.12;101606.28;5072432;28;45936;-84
2021/08/24 03:53:29;;;;;;;;;39.50;34.00;;;;;17.38;69.25;101572.03;5057250;28;45848;-86
2021/08/24 03:55:54;;;;;;;;;34.75;31.50;;;;;17.35;69.34;101569.66;5058881;28;45720;-83
2021/08/24 03:58:28;;;;;;;;;42.75;35.00;;;;;17.48;69.10;101593.31;5041315;28;47274;-85
2021/08/24 04:00:53;;;;;;;;;35.75;32.25;;;;;17.78;69.16;101641.09;5042004;28;45974;-84
2021/08/24 04:03:22;;;;;;;;;40.00;33.25;;;;;17.78;69.55;101648.22;5040785;28;46087;-84
2021/08/24 04:05:47;;;;;;;;;35.75;32.25;;;;;17.61;69.41;101620.47;5059308;28;45671;-82
2021/08/24 04:08:12;;;;;;;;;42.25;33.75;;;;;17.45;69.25;101590.91;5075656;28;47407;-82
2021/08/24 04:13:29;;;;;;;;;38.75;33.75;;;;;17.56;69.19;101620.00;5059820;28;46236;-86
2021/08/24 04:15:55;;;;;;;;;35.00;31.00;;;;;17.63;69.45;101642.41;5058928;28;45603;-85
2021/08/24 04:18:20;;;;;;;;;41.75;35.00;;;;;17.53;68.95;101621.09;5040981;28;48193;-84
2021/08/24 04:20:46;;;;;;;;;34.50;29.75;;;;;17.73;69.39;101653.91;5059597;28;45578;-84
2021/08/24 04:23:16;;;;;;;;;41.00;33.75;;;;;17.75;68.91;101661.72;5039675;28;45830;-84
2021/08/24 04:25:42;;;;;;;;;38.25;32.25;;;;;17.44;69.04;101605.13;5038980;28;48290;-85
2021/08/24 04:28:07;;;;;;;;;34.00;31.25;;;;;17.40;69.50;101598.41;5057676;28;45804;-85
2021/08/24 04:30:35;;;;;;;;;38.00;32.50;;;;;17.75;69.26;101662.56;5058574;28;45528;-83
2021/08/24 04:33:00;;;;;;;;;41.25;34.00;;;;;17.43;68.90;101617.56;5061172;28;45841;-86
2021/08/24 04:35:26;;;;;;;;;36.50;32.25;;;;;17.47;68.91;101626.91;5062530;28;45594;-84
2021/08/24 04:37:51;;;;;;;;;39.25;33.00;;;;;17.34;69.57;101605.06;5043887;28;46929;-84
2021/08/24 04:40:17;;;;;;;;;37.50;33.00;;;;;17.33;69.48;101608.66;5077996;28;45589;-83
2021/08/24 04:46:05;;;;;;;;;38.25;33.25;;;;;17.58;69.18;101661.31;5056611;28;45543;-83
2021/08/24 04:48:31;;;;;;;;;37.00;33.00;;;;;17.60;69.07;101651.44;5056596;28;46152;-84
2021/08/24 04:50:57;;;;;;;;;38.25;33.00;;;;;17.37;69.33;101615.41;5056841;28;46003;-84
2021/08/24 04:53:24;;;;;;;;;35.75;30.75;;;;;17.43;69.51;101638.75;5063544;28;45720;-84
2021/08/24 04:55:51;;;;;;;;;40.75;33.50;;;;;17.60;69.93;101674.44;5041360;28;45973;-84
2021/08/24 04:58:16;;;;;;;;;33.00;30.75;;;;;17.43;69.32;101645.84;5043552;28;46898;-84
2021/08/24 05:00:41;;;;;;;;;39.25;33.25;;;;;17.40;69.67;101641.63;5078768;28;45806;-84
2021/08/24 05:03:07;;;;;;;;;37.00;32.00;;;;;17.54;69.44;101669.66;5076690;28;45688;-84
2021/08/24 05:05:33;;;;;;;;;38.00;33.25;;;;;17.46;69.41;101662.31;5071581;28;47963;-84
2021/08/24 05:07:58;;;;;;;;;36.00;32.50;;;;;17.44;69.76;101656.31;5055407;28;45621;-83
2021/08/24 05:10:24;;;;;;;;;36.50;33.00;;;;;17.34;69.80;101644.78;5071346;28;45942;-84
2021/08/24 05:16:11;;;;;;;;;38.00;32.00;;;;;17.42;69.46;101658.25;5055533;28;45892;-84
2021/08/24 05:18:38;;;;;;;;;37.75;33.75;;;;;17.49;69.95;101677.94;5071204;28;48152;-84
2021/08/24 05:21:06;;;;;;;;;34.75;30.25;;;;;17.44;69.69;101668.69;5037079;28;46043;-83
2021/08/24 05:23:32;;;;;;;;;35.25;30.25;;;;;17.43;69.56;101673.19;5055066;28;45508;-84
2021/08/24 05:25:57;;;;;;;;;36.50;32.75;;;;;17.26;69.70;101649.91;5054721;28;45873;-84
2021/08/24 05:28:23;;;;;;;;;36.00;33.00;;;;;17.36;70.01;101672.00;5037321;28;48637;-83
2021/08/24 05:30:48;;;;;;;;;38.50;32.75;;;;;17.45;69.78;101695.09;5055200;28;45697;-84
2021/08/24 05:33:14;;;;;;;;;37.25;32.50;;;;;17.33;70.28;101674.88;5070947;28;45651;-83
2021/08/24 05:35:39;;;;;;;;;31.75;28.25;;;;;17.42;69.51;101687.41;5055334;28;45615;-83
2021/08/24 05:38:05;;;;;;;;;36.00;31.75;;;;;17.20;69.44;101647.75;5036502;28;46253;-83
2021/08/24 05:40:30;;;;;;;;;32.75;30.00;;;;;17.44;69.99;101695.19;5054880;28;45693;-83
2021/08/24 05:46:17;;;;;;;;;32.25;30.50;;;;;17.36;69.72;101674.66;5054370;28;45757;-83
2021/08/24 05:48:43;;;;;;;;;34.75;32.25;;;;;17.42;69.86;101679.44;5055316;28;45728;-84
2021/08/24 05:51:12;;;;;;;;;33.00;29.50;;;;;17.37;69.60;101668.41;5054535;28;46018;-84
2021/08/24 05:53:38;;;;;;;;;33.25;31.00;;;;;17.34;69.81;101660.69;5036608;28;45579;-84
2021/08/24 05:56:12;;;;;;;;;32.50;29.25;;;;;17.50;69.37;101690.25;5054973;28;46366;-84
2021/08/24 05:58:38;;;;;;;;;32.50;29.75;;;;;17.49;69.50;101691.19;5036491;28;48629;-85
2021/08/24 06:01:05;;;;;;;;;35.75;31.00;;;;;17.48;69.56;101686.06;5054444;28;45683;-82
2021/08/24 06:03:31;;;;;;;;;31.75;29.25;;;;;17.37;69.69;101675.50;5055755;28;45782;-84
2021/08/24 06:05:58;;;;;;;;;36.00;30.50;;;;;17.38;69.66;101685.13;5036626;28;47323;-82
2021/08/24 06:08:23;;;;;;;;;32.00;30.75;;;;;17.23;69.38;101654.59;5069877;28;46490;-83
2021/08/24 06:10:49;;;;;;;;;31.25;29.75;;;;;17.31;69.43;101674.19;5070041;28;45673;-85
2021/08/24 06:16:37;;;;;;;;;35.25;32.00;;;;;17.53;69.76;101707.72;5056378;28;46040;-85
2021/08/24 06:19:03;;;;;;;;;34.50;30.00;;;;;17.41;69.86;101679.56;5040971;28;47016;-83
2021/08/24 06:21:29;;;;;;;;;30.50;29.25;;;;;17.54;69.41;101706.75;5059166;28;45621;-83
2021/08/24 06:23:54;;;;;;;;;35.75;28.75;;;;;17.37;69.74;101671.03;5057326;28;45724;-84
2021/08/24 06:26:20;;;;;;;;;31.25;27.75;;;;;17.28;69.68;101655.88;5037032;28;47299;-84
2021/08/24 06:28:47;;;;;;;;;32.00;30.00;;;;;17.56;69.53;101697.69;5038706;28;48242;-84
2021/08/24 06:31:19;;;;;;;;;31.25;29.75;;;;;17.44;69.06;101677.50;5042052;28;45858;-85
2021/08/24 06:33:45;;;;;;;;;35.00;29.00;;;;;17.58;69.17;101701.06;5042975;28;45864;-83
2021/08/24 06:36:11;;;;;;;;;28.75;27.00;;;;;17.39;69.28;101671.75;5041276;28;46568;-83
2021/08/24 06:38:37;;;;;;;;;31.50;27.50;;;;;17.53;69.35;101683.84;5075179;28;48490;-85
2021/08/24 06:41:04;;;;;;;;;32.25;30.00;;;;;17.37;69.62;101659.59;5056858;28;45748;-85
2021/08/24 06:46:51;;;;;;;;;29.00;27.25;;;;;17.45;69.10;101673.03;5054590;28;46246;-84
2021/08/24 06:49:16;;;;;;;;;29.75;26.50;;;;;17.49;69.33;101667.34;5055401;28;46297;-85
2021/08/24 06:51:42;;;;;;;;;32.25;28.75;;;;;17.40;69.62;101648.75;5054620;28;45678;-84
2021/08/24 06:54:07;;;;;;;;;30.75;27.50;;;;;17.59;69.51;101696.59;5058803;28;45758;-85
2021/08/24 06:56:34;;;;;;;;;34.00;30.25;;;;;17.61;68.98;101687.56;5060479;28;46629;-84
2021/08/24 06:59:03;;;;;;;;;33.75;29.50;;;;;17.56;69.27;101680.94;5039409;28;46468;-84
2021/08/24 07:01:30;;;;;;;;;29.50;27.25;;;;;17.57;68.84;101677.31;5037348;28;45894;-84
2021/08/24 07:03:56;;;;;;;;;28.25;27.00;;;;;17.68;68.97;101695.84;5092117;28;45619;-83
2021/08/24 07:06:21;;;;;;;;;29.25;27.50;;;;;17.61;69.33;101684.91;5059285;28;47264;-84
2021/08/24 07:08:48;;;;;;;;;31.00;28.00;;;;;17.68;69.03;101698.50;5077110;28;45595;-84
2021/08/24 07:11:13;;;;;;;;;27.00;26.50;;;;;17.81;69.38;101704.47;5076038;28;45684;-83
2021/08/24 07:17:00;;;;;;;;;28.00;27.25;;;;;17.79;69.08;101694.97;5058224;28;45823;-85
2021/08/24 07:19:26;;;;;;;;;31.25;28.00;;;;;17.80;68.86;101680.75;5057858;28;45649;-84
2021/08/24 07:21:51;;;;;;;;;31.00;29.50;;;;;17.88;68.67;101700.31;5056268;28;45579;-85
2021/08/24 07:24:17;;;;;;;;;34.00;30.75;;;;;17.83;68.99;101676.00;5055014;28;45635;-86
2021/08/24 07:26:42;;;;;;;;;35.50;30.75;;;;;17.89;69.24;101688.75;5069882;28;47493;-84
2021/08/24 07:29:07;;;;;;;;;30.75;29.50;;;;;17.98;68.60;101700.38;5054027;28;46776;-86
2021/08/24 07:31:37;;;;;;;;;30.75;29.50;;;;;17.92;68.91;101690.31;5035580;28;45939;-85
2021/08/24 07:34:03;;;;;;;;;32.00;27.00;;;;;17.93;69.04;101687.50;5035585;28;45591;-83
2021/08/24 07:36:29;;;;;;;;;35.50;30.50;;;;;17.88;68.53;101673.81;5035222;28;46658;-83
2021/08/24 07:38:54;;;;;;;;;31.25;28.25;;;;;18.10;68.34;101703.81;5068894;28;47431;-86
2021/08/24 07:41:20;;;;;;;;;35.00;29.75;;;;;18.08;68.56;101701.31;5068609;28;45661;-84
2021/08/24 07:47:07;;;;;;;;;29.50;27.50;;;;;18.20;68.19;101708.19;5053632;28;46220;-84
2021/08/24 07:49:35;;;;;;;;;31.25;28.75;;;;;18.15;68.19;101702.44;5055354;28;45677;-84
2021/08/24 07:52:04;;;;;;;;;32.75;29.50;;;;;18.27;68.58;101700.56;5039877;28;45883;-85
2021/08/24 07:54:29;;;;;;;;;30.25;27.75;;;;;18.21;68.08;101682.50;5040199;28;45924;-82
2021/08/24 07:56:55;;;;;;;;;32.00;30.75;;;;;17.92;68.11;101629.34;5072615;28;46573;-84
2021/08/24 07:59:20;;;;;;;;;31.25;28.50;;;;;18.37;67.82;101710.25;5056986;28;46029;-86
2021/08/24 08:01:45;;;;;;;;;31.25;29.25;;;;;18.16;68.35;101656.38;5056454;28;45733;-83
2021/08/24 08:04:11;;;;;;;;;29.25;28.75;;;;;18.37;67.95;101688.16;5057153;28;45775;-87
2021/08/24 08:06:39;;;;;;;;;28.75;27.00;;;;;18.42;67.80;101697.41;5056584;28;46188;-82
2021/08/24 08:09:04;;;;;;;;;30.50;29.00;;;;;18.26;67.51;101653.78;5057030;28;46226;-81
2021/08/24 08:11:30;;;;;;;;;24.75;23.50;;;;;18.36;67.51;101663.44;5056552;28;45864;-85
2021/08/24 08:17:17;;;;;;;;;28.75;26.50;;;;;18.64;67.48;101693.78;5056310;28;45749;-83
2021/08/24 08:19:42;;;;;;;;;24.75;24.00;;;;;18.68;67.44;101691.66;5056691;28;45567;-84
2021/08/24 08:22:09;;;;;;;;;23.75;23.75;;;;;18.74;67.56;101691.13;5056421;28;46029;-87
2021/08/24 08:24:35;;;;;;;;;25.50;24.75;;;;;18.83;67.09;101691.19;5056664;28;45799;-83
2021/08/24 08:27:00;;;;;;;;;23.75;22.00;;;;;18.92;67.03;101701.97;5056574;28;45902;-83
2021/08/24 08:29:26;;;;;;;;;26.00;24.50;;;;;18.88;66.43;101690.78;5057928;28;46167;-87
2021/08/24 08:31:53;;;;;;;;;22.00;21.75;;;;;19.02;66.71;101697.50;5078283;28;45663;-86
2021/08/24 08:34:19;;;;;;;;;21.25;21.25;;;;;19.07;66.10;101703.25;5064012;28;45637;-85
2021/08/24 08:36:48;;;;;;;;;19.25;18.50;;;;;19.11;66.21;101694.84;5063889;28;45572;-83
2021/08/24 08:39:14;;;;;;;;;23.75;20.25;;;;;19.15;65.96;101706.06;5063676;28;46352;-85
2021/08/24 08:48:30;;;;;;;;;18.50;16.50;;;;;19.37;65.38;101704.97;5058223;28;45655;-85
2021/08/24 08:51:23;;;;;;;;;19.25;17.50;;;;;19.43;65.44;101709.75;5058724;28;46395;-87
2021/08/24 08:54:00;;;;;;;;;17.00;16.00;;;;;19.48;64.99;101704.88;5057946;28;45491;-85
2021/08/24 08:56:38;;;;;;;;;18.25;16.75;;;;;19.54;64.44;101707.78;5073062;28;45706;-87
2021/08/24 08:59:07;;;;;;;;;15.25;13.75;;;;;19.52;64.52;101695.63;5039476;28;47510;-84
2021/08/24 09:01:46;;;;;;;;;19.00;18.25;;;;;19.63;64.32;101696.34;5060070;28;45528;-84
2021/08/24 09:04:17;;;;;;;;;13.25;12.75;;;;;19.68;63.58;101696.75;5057533;28;45804;-80
2021/08/24 09:06:49;;;;;;;;;13.00;12.00;;;;;19.67;63.58;101678.25;5060338;28;45574;-82
2021/08/24 09:09:16;;;;;;;;;17.75;15.25;;;;;19.79;63.43;101693.09;5062153;28;45930;-80
2021/08/24 09:11:46;;;;;;;;;16.25;13.25;;;;;19.76;63.19;101677.41;5061944;28;46295;-83
2021/08/24 09:14:21;;;;;;;;;12.25;12.25;;;;;19.91;63.20;101694.63;5044932;28;45711;-85
2021/08/24 09:17:11;;;;;;;;;14.00;12.00;;;;;19.77;62.84;101662.28;5057936;28;45721;-88
2021/08/24 09:19:54;;;;;;;;;11.75;11.75;;;;;20.04;62.87;101686.31;5050571;28;46644;-84
2021/08/24 09:22:20;;;;;;;;;10.75;9.50;;;;;20.13;62.73;101694.28;5039700;28;46436;-85
2021/08/24 09:24:47;;;;;;;;;13.00;11.25;;;;;20.22;62.64;101689.06;5056029;28;46380;-82
2021/08/24 09:30:44;;;;;;;;;11.50;10.50;;;;;20.33;61.21;101686.28;5057583;28;45531;-84
2021/08/24 09:33:11;;;;;;;;;10.75;10.00;;;;;20.36;61.72;101688.63;5057227;28;45968;-87
2021/08/24 09:35:42;;;;;;;;;11.25;11.00;;;;;20.44;61.27;101683.44;5072142;28;45758;-87
2021/08/24 09:38:27;;;;;;;;;8.25;7.50;;;;;20.51;61.10;101684.53;5055852;28;45697;-88
2021/08/24 09:40:56;;;;;;;;;9.00;8.50;;;;;20.42;60.52;101654.28;5037834;28;47361;-84
2021/08/24 09:46:44;;;;;;;;;8.50;7.50;;;;;20.64;59.56;101663.69;5056825;28;45680;-83
2021/08/24 09:49:32;;;;;;;;;7.50;6.75;;;;;20.67;59.62;101662.59;5071701;28;45543;-83
2021/08/24 09:52:02;;;;;;;;;8.00;8.00;;;;;20.74;59.18;101668.97;5056362;28;45692;-84
2021/08/24 09:54:43;;;;;;;;;8.75;7.00;;;;;20.83;58.80;101663.63;5038812;28;46202;-84
2021/08/24 09:57:11;;;;;;;;;9.00;8.00;;;;;20.90;58.40;101669.16;5055374;28;45965;-84
2021/08/24 09:59:45;;;;;;;;;7.00;6.00;;;;;20.74;58.89;101627.19;5055373;28;45825;-81
2021/08/24 10:02:49;;;;;;;;;6.50;6.25;;;;;21.03;58.27;101661.66;5055141;28;45632;-84
2021/08/24 10:05:37;;;;;;;;;5.50;5.50;;;;;21.09;57.96;101666.38;5012643;28;46864;-83
2021/08/24 10:08:40;;;;;;;;;6.75;6.50;;;;;21.14;56.71;101660.59;5012699;28;45699;-85
2021/08/24 10:11:27;;;;;;;;;7.00;6.00;;;;;21.22;57.11;101656.19;5012571;28;46182;-84
2021/08/24 10:13:53;;;;;;;;;3.75;3.50;;;;;21.20;56.37;101633.34;5012706;28;45837;-84
2021/08/24 10:16:28;;;;;;;;;6.00;4.75;;;;;21.17;55.86;101618.50;5011781;28;47272;-84
2021/08/24 10:19:06;;;;;;;;;6.00;6.00;;;;;21.54;56.23;101654.81;4996313;28;45635;-84
2021/08/24 10:21:38;;;;;;;;;5.00;5.00;;;;;21.35;55.86;101603.34;5013481;28;45661;-83
2021/08/24 10:24:04;;;;;;;;;6.00;6.00;;;;;21.51;55.47;101618.63;5013200;28;46346;-86
2021/08/24 10:26:34;;;;;;;;;4.75;4.50;;;;;21.75;54.87;101640.13;4996480;28;46892;-83
2021/08/24 10:29:08;;;;;;;;;5.25;4.00;;;;;21.91;54.31;101639.41;5014561;28;45816;-85
2021/08/24 10:31:58;;;;;;;;;7.00;5.75;;;;;21.99;53.73;101641.31;5000698;28;45599;-84
2021/08/24 10:34:31;;;;;;;;;6.25;5.75;;;;;21.83;53.70;101606.50;4980205;28;45542;-88
2021/08/24 10:37:24;;;;;;;;;6.00;5.00;;;;;22.11;53.42;101635.56;4980033;28;46222;-86
2021/08/24 10:40:08;;;;;;;;;5.75;5.00;;;;;22.16;52.74;101643.94;4993659;28;45619;-84
2021/08/24 10:46:19;;;;;;;;;5.00;5.00;;;;;22.24;51.27;101642.31;4997797;28;45604;-86
2021/08/24 10:48:45;;;;;;;;;3.25;3.25;;;;;22.25;50.45;101646.63;4997332;28;45623;-84
2021/08/24 10:51:33;;;;;;;;;3.50;3.00;;;;;22.27;49.57;101634.81;4994492;28;45857;-84
2021/08/24 10:54:23;;;;;;;;;4.75;4.75;;;;;22.28;47.91;101647.16;4986626;28;45765;-84
2021/08/24 10:57:10;;;;;;;;;5.50;4.25;;;;;22.28;48.92;101641.81;4995387;28;45921;-86
2021/08/24 11:03:42;;;;;;;;;1.00;1.00;;;;;22.44;49.41;101643.72;4996723;28;45637;-84
2021/08/24 11:06:21;;;;;;;;;4.00;4.00;;;;;22.44;48.73;101625.03;4998861;28;45655;-86
2021/08/24 11:09:07;;;;;;;;;3.00;3.00;;;;;22.62;48.48;101630.28;4998466;28;45612;-86
2021/08/24 11:11:44;;;;;;;;;5.00;5.00;;;;;22.60;48.13;101617.91;5030837;28;46262;-84
2021/08/24 11:17:41;;;;;;;;;5.00;3.00;;;;;22.80;48.11;101637.19;5055710;28;45857;-84
2021/08/24 11:20:24;;;;;;;;;4.50;4.00;;;;;22.86;47.92;101633.88;5056131;28;46452;-85
2021/08/24 11:23:28;;;;;;;;;5.00;4.00;;;;;22.91;47.04;101647.56;5055679;28;46101;-84
2021/08/24 11:26:08;;;;;;;;;3.00;3.00;;;;;22.90;46.84;101621.84;5060202;28;45849;-83
2021/08/24 11:28:42;;;;;;;;;3.75;3.75;;;;;22.96;45.79;101633.72;5060751;28;45770;-87
2021/08/24 11:31:24;;;;;;;;;4.00;3.75;;;;;22.80;45.73;101601.59;5074669;28;47823;-87
2021/08/24 11:34:14;;;;;;;;;4.00;4.00;;;;;23.04;45.08;101622.22;5060206;28;45984;-84
2021/08/24 11:36:52;;;;;;;;;4.00;4.00;;;;;22.89;44.89;101592.59;5059495;28;45661;-87
2021/08/24 11:39:24;;;;;;;;;3.75;2.75;;;;;23.09;45.33;101631.41;5058083;28;46026;-84
2021/08/24 11:41:57;;;;;;;;;3.25;3.00;;;;;23.00;45.74;101606.47;5057976;28;45643;-87
2021/08/24 11:44:37;;;;;;;;;4.25;4.25;;;;;23.21;44.46;101618.56;5058283;28;45617;-86
2021/08/24 11:47:11;;;;;;;;;3.00;3.00;;;;;23.13;44.54;101597.97;5074575;28;45632;-86
2021/08/24 11:49:52;;;;;;;;;4.25;4.00;;;;;23.17;43.80;101614.50;5058730;28;45882;-86
2021/08/24 11:52:56;;;;;;;;;3.00;3.00;;;;;23.12;43.57;101609.66;5058388;28;46595;-86
2021/08/24 11:55:27;;;;;;;;;3.50;3.00;;;;;23.24;43.43;101631.56;4995462;28;46146;-83
2021/08/24 12:01:20;;;;;;;;;5.00;3.75;;;;;23.12;42.70;101598.13;4995140;28;45820;-85
2021/08/24 12:03:58;;;;;;;;;5.00;4.00;;;;;23.11;43.01;101601.81;4995319;28;45803;-85
2021/08/24 12:06:42;;;;;;;;;3.50;3.50;;;;;23.23;42.61;101622.72;5012080;28;48257;-85
2021/08/24 12:09:32;;;;;;;;;4.00;4.00;;;;;23.22;43.22;101607.66;4995345;28;45972;-87
2021/08/24 12:11:59;;;;;;;;;4.25;3.00;;;;;23.32;43.56;101605.66;4995231;28;49222;-85
2021/08/24 12:17:59;;;;;;;;;3.25;3.00;;;;;23.28;42.40;101584.78;4995623;28;45659;-83
2021/08/24 12:20:50;;;;;;;;;4.00;3.50;;;;;23.30;42.43;101580.09;4978771;28;45683;-85
2021/08/24 12:23:52;;;;;;;;;3.00;3.00;;;;;23.33;42.69;101579.75;4995603;28;45869;-84
2021/08/24 12:26:34;;;;;;;;;5.50;3.75;;;;;23.51;42.97;101601.00;4956209;28;48580;-88
2021/08/24 12:29:10;;;;;;;;;4.75;4.00;;;;;23.35;42.61;101567.06;4969788;28;46267;-86
2021/08/24 12:31:43;;;;;;;;;2.00;2.00;;;;;23.56;43.24;101583.44;4995153;28;45731;-88
2021/08/24 12:34:33;;;;;;;;;4.00;3.00;;;;;23.68;42.72;101587.44;4995019;28;45872;-84
2021/08/24 12:37:19;;;;;;;;;4.25;3.00;;;;;23.70;42.56;101585.41;4978565;28;46960;-85
2021/08/24 12:39:45;;;;;;;;;3.75;3.75;;;;;23.65;41.83;101578.91;4974890;28;46424;-87
2021/08/24 12:42:24;;;;;;;;;3.25;3.25;;;;;23.64;42.27;101571.91;4977093;28;45610;-84
2021/08/24 12:45:19;;;;;;;;;4.00;3.50;;;;;23.68;42.50;101573.22;4979942;28;45565;-87
2021/08/24 12:48:23;;;;;;;;;3.00;3.00;;;;;23.83;42.07;101596.44;4981046;28;46916;-85
2021/08/24 12:50:48;;;;;;;;;3.00;3.00;;;;;23.83;42.08;101600.97;4950634;28;48408;-88
2021/08/24 12:53:28;;;;;;;;;3.25;3.00;;;;;23.84;42.27;101590.09;4983702;28;45784;-85
2021/08/24 12:55:59;;;;;;;;;3.75;3.25;;;;;23.80;41.87;101582.56;4981359;28;45659;-87
2021/08/24 12:58:45;;;;;;;;;6.00;4.00;;;;;23.88;41.62;101587.88;4980889;28;46413;-85
2021/08/24 13:01:23;;;;;;;;;4.00;4.00;;;;;23.87;40.03;101593.41;4997168;28;46722;-85